createdAt,value
2019-04-16T03:31:43.186Z,96.26
2019-04-16T03:32:41.511Z,96.03
2019-04-16T03:33:48.176Z,97.17
2019-04-16T03:34:42.925Z,96.55
2019-04-16T03:35:41.712Z,96.65
2019-04-16T03:38:13.618Z,98.50
2019-04-16T03:39:13.921Z,98.31
2019-04-16T03:40:17.549Z,99.07
2019-04-16T03:41:13.132Z,99.35
2019-04-16T03:42:13.615Z,99.35
2019-04-16T03:43:14.274Z,99.21
2019-04-16T03:44:13.070Z,99.16
2019-04-16T03:45:13.035Z,99.40
2019-04-16T03:46:14.210Z,98.74
2019-04-16T03:47:15.734Z,98.59
2019-04-16T03:48:13.301Z,99.07
2019-04-16T03:49:13.098Z,99.44
2019-04-16T03:50:13.104Z,99.54
2019-04-16T03:51:13.112Z,99.26
2019-04-16T03:52:13.125Z,99.99
2019-04-16T03:53:16.329Z,99.83
2019-04-16T03:54:13.180Z,99.64
2019-04-16T03:55:13.158Z,99.99
2019-04-16T03:56:13.174Z,99.99
2019-04-16T03:57:13.185Z,99.99
2019-04-16T03:58:13.194Z,99.99
2019-04-16T03:59:13.258Z,99.99
2019-04-16T04:00:13.524Z,99.99
2019-04-16T04:01:14.217Z,99.99
2019-04-16T04:02:15.297Z,99.99
2019-04-16T04:03:13.281Z,99.99
2019-04-16T04:04:13.455Z,99.99
2019-04-16T04:05:13.459Z,99.99
2019-04-16T04:06:13.458Z,99.99
2019-04-16T04:07:13.450Z,99.99
2019-04-16T04:08:16.114Z,99.99
2019-04-16T04:09:13.375Z,99.99
2019-04-16T04:10:13.345Z,99.99
2019-04-16T04:11:13.364Z,99.99
2019-04-16T04:12:14.170Z,99.99
2019-04-16T04:13:17.529Z,99.99
2019-04-16T04:14:13.421Z,99.99
2019-04-16T04:15:13.401Z,99.99
2019-04-16T04:16:13.414Z,99.99
2019-04-16T04:17:13.426Z,99.99
2019-04-16T04:18:13.469Z,99.99
2019-04-16T04:19:15.172Z,99.99
2019-04-16T04:20:14.853Z,99.99
2019-04-16T04:21:13.476Z,99.99
2019-04-16T04:22:13.486Z,99.99
2019-04-16T04:23:13.500Z,99.99
2019-04-16T04:24:13.525Z,99.99
2019-04-16T04:25:13.538Z,99.99
2019-04-16T04:26:13.543Z,99.99
2019-04-16T04:27:18.264Z,99.99
2019-04-16T04:28:18.740Z,99.99
2019-04-16T04:29:13.769Z,99.99
2019-04-16T04:30:13.585Z,99.99
2019-04-16T04:31:13.621Z,99.99
2019-04-16T04:32:13.610Z,99.99
2019-04-16T04:33:13.621Z,99.99
2019-04-16T04:34:15.374Z,99.99
2019-04-16T04:35:13.653Z,99.99
2019-04-16T04:36:13.657Z,99.99
2019-04-16T04:37:13.680Z,99.99
2019-04-16T04:38:13.685Z,99.99
2019-04-16T04:39:15.714Z,99.99
2019-04-16T04:40:16.173Z,99.99
2019-04-16T04:41:13.838Z,99.99
2019-04-16T04:42:13.741Z,99.99
2019-04-16T04:43:14.006Z,99.99
2019-04-16T04:44:13.791Z,99.99
2019-04-16T04:45:13.917Z,99.99
2019-04-16T04:46:15.338Z,99.99
2019-04-16T04:47:15.538Z,99.99
2019-04-16T04:48:13.818Z,99.99
2019-04-16T04:49:13.822Z,99.99
2019-04-16T04:50:13.849Z,99.99
2019-04-16T04:51:13.846Z,99.99
2019-04-16T04:52:15.147Z,99.99
2019-04-16T04:53:15.601Z,99.99
2019-04-16T04:54:13.883Z,99.99
2019-04-16T04:55:13.925Z,99.99
2019-04-16T04:56:13.944Z,99.99
2019-04-16T04:57:13.924Z,99.99
2019-04-16T04:58:13.932Z,99.99
2019-04-16T04:59:13.945Z,99.99
2019-04-16T05:00:13.955Z,99.99
2019-04-16T05:01:14.370Z,99.99
2019-04-16T05:02:15.315Z,99.99
2019-04-16T05:03:15.884Z,99.99
2019-04-16T05:04:19.467Z,99.99
2019-04-16T05:05:14.020Z,99.99
2019-04-16T05:06:14.079Z,99.99
2019-04-16T05:07:14.172Z,99.99
2019-04-16T05:08:14.102Z,99.99
2019-04-16T05:09:14.076Z,99.99
2019-04-16T05:10:14.080Z,99.99
2019-04-16T05:11:15.845Z,99.99
2019-04-16T05:12:14.121Z,99.99
2019-04-16T05:13:14.127Z,99.99
2019-04-16T05:14:14.139Z,99.99
2019-04-16T05:15:14.146Z,99.99
2019-04-16T05:16:14.202Z,99.99
2019-04-16T05:17:14.171Z,99.99
2019-04-16T05:18:14.196Z,99.99
2019-04-16T05:19:15.495Z,98.60
2019-04-16T05:20:15.422Z,97.31
2019-04-16T05:21:17.792Z,95.51
2019-04-16T05:22:14.240Z,94.65
2019-04-16T05:23:14.260Z,95.56
2019-04-16T05:24:14.290Z,95.84
2019-04-16T05:25:14.280Z,97.45
2019-04-16T05:26:14.314Z,98.03
2019-04-16T05:27:14.324Z,96.98
2019-04-16T05:28:14.318Z,97.08
2019-04-16T05:29:17.485Z,98.22
2019-04-16T05:30:14.359Z,99.07
2019-04-16T05:31:14.418Z,99.99
2019-04-16T05:32:14.370Z,99.99
2019-04-16T05:33:14.424Z,98.31
2019-04-16T05:34:17.399Z,97.74
2019-04-16T05:35:14.586Z,97.36
2019-04-16T05:36:15.414Z,96.79
2019-04-16T05:37:16.423Z,97.74
2019-04-16T05:38:14.457Z,99.26
2019-04-16T05:39:14.465Z,98.50
2019-04-16T05:40:14.516Z,98.03
2019-04-16T05:41:20.341Z,97.27
2019-04-16T05:42:14.530Z,96.03
2019-04-16T05:43:14.519Z,95.46
2019-04-16T05:44:23.701Z,95.65
2019-04-16T05:46:19.976Z,94.98
2019-04-16T05:47:19.258Z,94.60
2019-04-16T05:48:21.652Z,94.51
2019-04-16T05:49:19.057Z,95.03
2019-04-16T05:50:19.080Z,95.51
2019-04-16T05:51:19.088Z,94.65
2019-04-16T05:52:19.100Z,94.03
2019-04-16T05:53:19.141Z,94.89
2019-04-16T05:54:19.139Z,94.42
2019-04-16T05:55:19.445Z,95.60
2019-04-16T05:56:20.244Z,95.51
2019-04-16T05:57:19.331Z,94.46
2019-04-16T05:58:19.273Z,93.89
2019-04-16T05:59:19.300Z,93.60
2019-04-16T06:00:19.219Z,92.84
2019-04-16T06:01:19.218Z,91.99
2019-04-16T06:02:19.987Z,91.89
2019-04-16T06:03:21.880Z,92.70
2019-04-16T06:04:24.144Z,90.70
2019-04-16T06:05:19.278Z,89.84
2019-04-16T06:06:19.287Z,88.99
2019-04-16T06:07:19.341Z,89.18
2019-04-16T06:08:19.338Z,89.84
2019-04-16T06:09:19.327Z,90.13
2019-04-16T06:10:19.637Z,90.51
2019-04-16T06:11:28.632Z,89.08
2019-04-16T06:12:19.386Z,87.18
2019-04-16T06:13:19.470Z,87.56
2019-04-16T06:14:19.555Z,88.13
2019-04-16T06:15:22.350Z,89.47
2019-04-16T06:16:23.953Z,90.13
2019-04-16T06:17:19.495Z,88.84
2019-04-16T06:18:19.455Z,87.79
2019-04-16T06:19:19.503Z,85.32
2019-04-16T06:20:21.009Z,85.36
2019-04-16T06:21:19.597Z,83.84
2019-04-16T06:22:19.530Z,81.74
2019-04-16T06:23:19.523Z,81.21
2019-04-16T06:24:19.598Z,80.64
2019-04-16T06:25:19.558Z,78.73
2019-04-16T06:26:19.665Z,79.07
2019-04-16T06:27:19.730Z,79.21
2019-04-16T06:28:19.595Z,78.44
2019-04-16T06:29:19.608Z,78.16
2019-04-16T06:30:19.624Z,77.15
2019-04-16T06:31:19.641Z,77.34
2019-04-16T06:32:19.702Z,76.01
2019-04-16T06:33:19.731Z,75.34
2019-04-16T06:34:19.690Z,75.24
2019-04-16T06:35:19.773Z,75.43
2019-04-16T06:36:19.813Z,74.57
2019-04-16T06:37:21.805Z,73.91
2019-04-16T06:38:19.742Z,73.75
2019-04-16T06:39:19.798Z,72.64
2019-04-16T06:40:19.778Z,71.59
2019-04-16T06:41:19.788Z,69.68
2019-04-16T06:42:22.298Z,70.10
2019-04-16T06:43:25.266Z,69.34
2019-04-16T06:44:19.840Z,68.76
2019-04-16T06:45:19.855Z,67.84
2019-04-16T06:46:19.876Z,67.36
2019-04-16T06:47:19.956Z,66.06
2019-04-16T06:48:19.900Z,65.52
2019-04-16T06:49:19.967Z,63.89
2019-04-16T06:50:31.258Z,63.23
2019-04-16T06:51:20.014Z,62.37
2019-04-16T06:52:19.986Z,61.34
2019-04-16T06:53:23.783Z,61.51
2019-04-16T06:54:20.014Z,61.31
2019-04-16T06:55:20.044Z,61.69
2019-04-16T06:56:20.772Z,61.60
2019-04-16T06:57:20.104Z,61.31
2019-04-16T06:58:20.106Z,60.64
2019-04-16T06:59:20.096Z,60.55
2019-04-16T07:00:20.273Z,61.51
2019-04-16T07:01:22.250Z,61.22
2019-04-16T07:02:20.163Z,61.79
2019-04-16T07:03:20.186Z,61.85
2019-04-16T07:04:20.202Z,61.66
2019-04-16T07:05:20.206Z,61.95
2019-04-16T07:06:20.226Z,62.33
2019-04-16T07:07:21.801Z,62.43
2019-04-16T07:08:20.265Z,61.57
2019-04-16T07:09:23.508Z,62.43
2019-04-16T07:10:20.306Z,62.52
2019-04-16T07:11:20.342Z,61.95
2019-04-16T07:12:20.409Z,62.24
2019-04-16T07:13:20.569Z,62.65
2019-04-16T07:14:20.389Z,63.51
2019-04-16T07:15:24.200Z,62.37
2019-04-16T07:16:20.413Z,61.69
2019-04-16T07:17:20.507Z,61.98
2019-04-16T07:18:21.309Z,62.04
2019-04-16T07:19:20.556Z,61.19
2019-04-16T07:20:20.536Z,61.38
2019-04-16T07:21:20.521Z,61.95
2019-04-16T07:22:21.296Z,62.04
2019-04-16T07:23:24.255Z,60.42
2019-04-16T07:24:23.117Z,61.19
2019-04-16T07:25:30.159Z,61.66
2019-04-16T07:27:19.568Z,61.95
2019-04-16T07:28:14.217Z,63.19
2019-04-16T07:29:14.181Z,63.10
2019-04-16T07:30:14.555Z,61.98
2019-04-16T07:31:31.823Z,61.85
2019-04-16T07:32:14.162Z,61.47
2019-04-16T07:33:14.140Z,62.37
2019-04-16T07:34:14.156Z,63.03
2019-04-16T07:35:22.983Z,61.12
2019-04-16T07:37:32.883Z,60.06
2019-04-16T07:38:18.772Z,59.88
2019-04-16T07:39:29.357Z,60.42
2019-04-16T07:41:32.407Z,61.38
2019-04-16T07:42:33.084Z,61.19
2019-04-16T07:44:39.273Z,61.19
2019-04-16T07:45:36.514Z,61.57
2019-04-16T07:47:30.315Z,61.38
2019-04-16T07:48:32.654Z,61.85
2019-04-16T07:50:34.746Z,62.24
2019-04-16T07:51:25.861Z,62.68
2019-04-16T07:52:34.445Z,63.07
2019-04-16T07:54:39.384Z,62.87
2019-04-16T07:55:38.974Z,62.78
2019-04-16T07:57:32.879Z,63.64
2019-04-16T07:58:32.427Z,63.64
2019-04-16T08:00:41.233Z,63.45
2019-04-16T08:01:28.316Z,64.31
2019-04-16T08:02:36.996Z,63.93
2019-04-16T08:04:41.756Z,63.83
2019-04-16T08:05:41.969Z,63.54
2019-04-16T08:07:28.000Z,62.24
2019-04-16T08:08:27.631Z,62.33
2019-04-16T08:09:29.243Z,62.04
2019-04-16T08:10:26.997Z,62.43
2019-04-16T08:11:27.962Z,62.24
2019-04-16T08:12:30.407Z,62.08
2019-04-16T08:13:26.911Z,60.42
2019-04-16T08:14:26.909Z,60.23
